Time;durP1;ratioP1;P1;durP2;ratioP2;P2;SDS_P1;SDS_P2;PMS_P1;PMS_P2;Temp;Humidity;BMP_temperature;BMP_pressure;BME280_temperature;BME280_humidity;BME280_pressure;Samples;Min_cycle;Max_cycle;Signal;HPM_P1;HPM_P2
2023/02/20 00:00:06;;;;;;;14.98;8.65;;;22.90;51.50;;;;;;5021213;28;20114;-65
2023/02/20 00:02:32;;;;;;;12.30;8.27;;;22.90;51.50;;;;;;5026008;28;20451;-65
2023/02/20 00:04:57;;;;;;;13.60;8.02;;;22.90;51.50;;;;;;5018260;28;20021;-65
2023/02/20 00:07:23;;;;;;;13.57;8.80;;;22.90;51.50;;;;;;5018110;28;20025;-64
2023/02/20 00:09:49;;;;;;;13.07;8.20;;;22.90;51.50;;;;;;5018789;28;20040;-66
2023/02/20 00:12:14;;;;;;;12.80;8.52;;;22.80;51.50;;;;;;5018900;28;20030;-66
2023/02/20 00:14:40;;;;;;;14.48;8.82;;;22.80;51.50;;;;;;5018124;28;20029;-66
2023/02/20 00:17:05;;;;;;;15.88;8.43;;;22.80;51.60;;;;;;5021034;28;20033;-65
2023/02/20 00:19:31;;;;;;;12.93;7.68;;;22.80;51.50;;;;;;5015273;28;20489;-65
2023/02/20 00:21:56;;;;;;;12.02;7.90;;;22.80;51.60;;;;;;5019649;28;20030;-66
2023/02/20 00:24:22;;;;;;;11.82;7.97;;;22.80;51.50;;;;;;5022947;28;20026;-64
2023/02/20 00:26:49;;;;;;;11.90;7.90;;;22.80;51.60;;;;;;5034902;28;20425;-66
2023/02/20 00:29:20;;;;;;;13.20;7.97;;;22.70;52.10;;;;;;5016368;28;20387;-65
2023/02/20 00:31:56;;;;;;;11.75;7.65;;;22.70;51.60;;;;;;5020288;28;20113;-66
2023/02/20 00:34:25;;;;;;;11.77;7.35;;;22.70;51.60;;;;;;5017885;28;20079;-65
2023/02/20 00:36:51;;;;;;;11.57;7.38;;;22.70;51.60;;;;;;5020274;28;20022;-65
2023/02/20 00:39:17;;;;;;;11.25;7.13;;;22.70;51.60;;;;;;5018066;28;20114;-67
2023/02/20 00:41:43;;;;;;;11.43;7.53;;;22.70;51.70;;;;;;5018475;28;20084;-65
2023/02/20 00:44:08;;;;;;;11.65;7.30;;;22.70;51.60;;;;;;5017652;28;20038;-65
2023/02/20 00:46:34;;;;;;;11.90;6.63;;;22.70;51.70;;;;;;5019929;28;20032;-65
2023/02/20 00:49:00;;;;;;;11.30;6.90;;;22.70;51.70;;;;;;5018178;28;20030;-67
2023/02/20 00:51:25;;;;;;;13.90;7.60;;;22.70;51.70;;;;;;5020262;28;20485;-64
2023/02/20 00:53:51;;;;;;;10.65;6.70;;;22.70;51.70;;;;;;5016533;28;20021;-65
2023/02/20 00:56:17;;;;;;;10.57;6.70;;;22.60;51.70;;;;;;5018172;28;20122;-65
2023/02/20 00:58:43;;;;;;;10.90;7.15;;;22.60;52.30;;;;;;5018834;28;20089;-65
2023/02/20 01:01:09;;;;;;;12.18;7.03;;;22.60;51.80;;;;;;5015806;28;20033;-66
2023/02/20 01:03:34;;;;;;;11.77;7.13;;;22.60;51.90;;;;;;5017481;28;20034;-65
2023/02/20 01:06:00;;;;;;;9.82;6.97;;;22.60;51.80;;;;;;5021789;28;20030;-65
2023/02/20 01:08:26;;;;;;;10.45;6.53;;;22.60;51.80;;;;;;5019670;28;20389;-65
2023/02/20 01:10:51;;;;;;;12.10;7.10;;;22.60;51.90;;;;;;5020378;28;20029;-65
2023/02/20 01:13:17;;;;;;;10.77;6.40;;;22.60;51.90;;;;;;5023158;28;20026;-65
2023/02/20 01:15:43;;;;;;;10.57;6.15;;;22.60;51.90;;;;;;5018641;28;20066;-66
2023/02/20 01:18:08;;;;;;;10.82;7.07;;;22.60;51.90;;;;;;5017100;28;20061;-65
2023/02/20 01:20:34;;;;;;;11.13;7.07;;;22.60;51.90;;;;;;5013835;28;20033;-65
2023/02/20 01:23:00;;;;;;;10.15;6.50;;;22.50;51.90;;;;;;5016130;28;20030;-65
2023/02/20 01:25:26;;;;;;;10.80;6.50;;;22.50;51.90;;;;;;5016770;28;20033;-66
2023/02/20 01:27:51;;;;;;;10.52;6.60;;;22.50;51.90;;;;;;5019880;28;20033;-66
2023/02/20 01:30:17;;;;;;;10.35;6.25;;;22.50;51.80;;;;;;5023413;28;20588;-65
2023/02/20 01:32:43;;;;;;;10.65;6.00;;;22.50;51.90;;;;;;5023083;28;20106;-65
2023/02/20 01:35:09;;;;;;;9.98;6.22;;;22.50;51.90;;;;;;5021525;28;20112;-65
2023/02/20 01:37:34;;;;;;;9.20;6.05;;;22.40;51.90;;;;;;5037675;28;20381;-66
2023/02/20 01:40:00;;;;;;;10.40;6.50;;;22.40;51.90;;;;;;5021842;28;20022;-65
2023/02/20 01:42:30;;;;;;;10.25;6.40;;;22.40;51.80;;;;;;5022438;28;20030;-66
2023/02/20 01:45:16;;;;;;;11.13;6.70;;;22.40;51.80;;;;;;5023172;28;20505;-66
2023/02/20 01:47:41;;;;;;;10.45;6.20;;;22.40;51.80;;;;;;5019726;28;20485;-65
2023/02/20 01:50:08;;;;;;;11.80;6.38;;;22.40;51.80;;;;;;5022124;28;20059;-66
2023/02/20 01:52:35;;;;;;;10.38;6.22;;;22.40;51.80;;;;;;5022684;28;20060;-66
2023/02/20 01:55:12;;;;;;;10.65;6.35;;;22.40;51.90;;;;;;5028276;28;20030;-67
2023/02/20 01:57:42;;;;;;;9.68;6.25;;;22.40;51.80;;;;;;5019705;28;20445;-66
2023/02/20 02:00:19;;;;;;;9.73;6.35;;;22.30;51.80;;;;;;5022113;28;20045;-66
2023/02/20 02:02:56;;;;;;;8.13;5.55;;;22.30;51.70;;;;;;5019228;28;20025;-66
2023/02/20 02:05:23;;;;;;;10.10;6.18;;;22.30;51.80;;;;;;5022442;28;20442;-65
2023/02/20 02:07:49;;;;;;;8.98;5.95;;;22.30;51.70;;;;;;5024382;28;20029;-65
2023/02/20 02:10:24;;;;;;;8.73;5.90;;;22.30;51.80;;;;;;5016978;28;20026;-65
2023/02/20 02:12:52;;;;;;;9.55;5.70;;;22.30;51.80;;;;;;5019507;28;20045;-65
2023/02/20 02:15:20;;;;;;;8.98;5.90;;;22.30;51.80;;;;;;5018778;28;20117;-66
2023/02/20 02:18:15;;;;;;;8.82;5.32;;;22.30;51.80;;;;;;5022568;28;20026;-65
2023/02/20 02:21:16;;;;;;;8.85;5.78;;;22.30;51.80;;;;;;5021683;28;20025;-66
2023/02/20 02:24:14;;;;;;;8.75;5.75;;;22.30;51.80;;;;;;5033456;28;20057;-66
2023/02/20 02:27:07;;;;;;;8.23;5.32;;;22.20;51.70;;;;;;5019509;28;20396;-65
2023/02/20 02:29:51;;;;;;;7.53;5.13;;;22.20;51.70;;;;;;5020463;28;20073;-66
2023/02/20 02:32:34;;;;;;;9.70;5.55;;;22.20;51.70;;;;;;5020059;28;20057;-67
2023/02/20 02:35:20;;;;;;;7.50;5.03;;;22.20;51.70;;;;;;5019011;28;20108;-66
2023/02/20 02:38:16;;;;;;;7.65;4.93;;;22.20;51.70;;;;;;5020153;28;20100;-67
2023/02/20 02:40:58;;;;;;;8.23;5.10;;;22.20;51.70;;;;;;5021893;28;20037;-66
2023/02/20 02:43:33;;;;;;;8.23;5.30;;;22.20;51.70;;;;;;5022966;28;20093;-66
2023/02/20 02:46:40;;;;;;;8.30;5.40;;;22.20;51.70;;;;;;5019368;28;20369;-66
2023/02/20 02:49:25;;;;;;;7.97;5.15;;;22.20;51.70;;;;;;4980508;28;20037;-66
2023/02/20 02:51:54;;;;;;;8.57;5.00;;;22.20;51.70;;;;;;4979366;28;20034;-66
2023/02/20 02:54:27;;;;;;;7.32;5.30;;;22.10;51.60;;;;;;5004289;28;20034;-66
2023/02/20 02:57:13;;;;;;;8.88;5.03;;;22.10;51.60;;;;;;5019087;28;20056;-66
2023/02/20 02:59:41;;;;;;;8.90;5.15;;;22.20;51.60;;;;;;5022010;28;20045;-65
2023/02/20 03:02:13;;;;;;;7.10;5.05;;;22.10;51.60;;;;;;5019598;28;20099;-66
2023/02/20 03:04:42;;;;;;;7.60;5.07;;;22.10;51.60;;;;;;5021829;28;20501;-66
2023/02/20 03:07:10;;;;;;;;;;;22.10;51.60;;;;;;5020667;28;20176;-65
2023/02/20 03:09:45;;;;;;;7.78;4.75;;;22.10;51.60;;;;;;5022669;28;20233;-65
2023/02/20 03:12:12;;;;;;;8.55;4.70;;;22.10;51.60;;;;;;5018336;28;20469;-68
2023/02/20 03:18:11;;;;;;;7.03;4.57;;;22.10;51.60;;;;;;5019634;28;20041;-65
2023/02/20 03:20:47;;;;;;;7.65;4.57;;;22.10;51.60;;;;;;5019025;28;20032;-66
2023/02/20 03:23:30;;;;;;;6.82;4.20;;;22.10;51.60;;;;;;5020949;28;20041;-65
2023/02/20 03:26:06;;;;;;;6.90;4.47;;;22.10;51.70;;;;;;5018780;28;20033;-66
2023/02/20 03:28:45;;;;;;;6.88;4.22;;;22.00;51.60;;;;;;5018043;28;20368;-67
2023/02/20 03:31:19;;;;;;;7.40;4.15;;;22.00;51.60;;;;;;5020701;28;20060;-66
2023/02/20 03:45:09;;;;;;;5.75;3.95;;;22.00;51.60;;;;;;5017771;28;20013;-65
2023/02/20 03:47:39;;;;;;;5.85;3.97;;;22.00;51.60;;;;;;5020826;28;20890;-66
2023/02/20 03:50:09;;;;;;;5.80;4.10;;;22.00;51.60;;;;;;5022874;28;20026;-66
2023/02/20 03:52:35;;;;;;;6.47;4.03;;;22.00;51.60;;;;;;5018796;28;20042;-65
2023/02/20 03:55:01;;;;;;;6.82;4.40;;;22.00;51.60;;;;;;5019863;28;20473;-66
2023/02/20 03:57:32;;;;;;;7.18;3.92;;;21.90;51.50;;;;;;5019593;28;20480;-66
2023/02/20 04:00:21;;;;;;;6.93;4.20;;;22.00;51.60;;;;;;5020686;28;20488;-66
2023/02/20 04:02:48;;;;;;;6.03;3.92;;;22.00;52.10;;;;;;5019500;28;20108;-65
2023/02/20 04:05:27;;;;;;;6.13;3.67;;;21.90;51.50;;;;;;5018977;28;20414;-65
2023/02/20 04:08:04;;;;;;;6.80;4.35;;;21.90;51.60;;;;;;5019083;28;20469;-66
2023/02/20 04:10:35;;;;;;;5.95;3.80;;;21.90;51.50;;;;;;5018520;28;20022;-66
2023/02/20 04:13:01;;;;;;;7.03;3.80;;;21.90;51.50;;;;;;5019171;28;20413;-67
2023/02/20 04:15:27;;;;;;;6.53;3.97;;;21.90;51.50;;;;;;5018855;28;20149;-65
2023/02/20 04:18:01;;;;;;;6.40;3.70;;;21.90;51.60;;;;;;5020533;28;20112;-65
2023/02/20 04:20:27;;;;;;;5.65;3.60;;;21.90;51.50;;;;;;5018775;28;20038;-65
2023/02/20 04:22:58;;;;;;;7.05;3.90;;;21.90;51.60;;;;;;5019596;28;20353;-66
2023/02/20 04:25:57;;;;;;;5.70;3.63;;;21.90;51.60;;;;;;5014643;28;20029;-65
2023/02/20 04:28:23;;;;;;;6.20;3.78;;;21.80;51.50;;;;;;5021279;28;20112;-65
2023/02/20 04:30:50;;;;;;;5.82;3.70;;;21.80;51.50;;;;;;5018954;28;20064;-66
2023/02/20 04:33:18;;;;;;;6.43;3.60;;;21.80;51.50;;;;;;5016451;28;20022;-65
2023/02/20 04:35:44;;;;;;;5.30;3.53;;;21.80;51.50;;;;;;5021614;28;20049;-66
2023/02/20 04:38:10;;;;;;;5.80;3.55;;;21.80;51.50;;;;;;5024001;28;20075;-65
2023/02/20 04:40:36;;;;;;;5.40;3.22;;;21.80;51.50;;;;;;5023735;28;20448;-67
2023/02/20 04:43:02;;;;;;;4.80;3.30;;;21.80;51.50;;;;;;5019283;28;20065;-66
2023/02/20 04:45:27;;;;;;;5.13;3.20;;;21.80;51.60;;;;;;5016483;28;20037;-66
2023/02/20 04:47:53;;;;;;;5.88;3.60;;;21.80;51.60;;;;;;5018475;28;20044;-66
2023/02/20 04:50:30;;;;;;;5.45;3.60;;;21.80;51.50;;;;;;5017984;28;20040;-66
2023/02/20 04:52:56;;;;;;;5.25;3.38;;;21.80;51.50;;;;;;5017062;28;20481;-67
2023/02/20 04:55:22;;;;;;;5.40;3.30;;;21.80;51.50;;;;;;5018877;28;20029;-65
2023/02/20 04:57:48;;;;;;;4.35;3.17;;;21.80;51.60;;;;;;5020311;28;20030;-66
2023/02/20 05:00:17;;;;;;;5.80;3.38;;;21.80;51.50;;;;;;5030662;28;20092;-66
2023/02/20 05:02:43;;;;;;;5.43;3.30;;;21.70;51.50;;;;;;5022725;28;20022;-67
2023/02/20 05:05:26;;;;;;;4.60;3.05;;;21.80;51.60;;;;;;5021646;28;20026;-66
2023/02/20 05:07:56;;;;;;;4.18;2.97;;;21.80;51.60;;;;;;5021515;28;20029;-66
2023/02/20 05:10:23;;;;;;;4.80;3.20;;;21.70;51.50;;;;;;5029171;28;20355;-66
2023/02/20 05:12:49;;;;;;;4.72;3.17;;;21.70;51.60;;;;;;5019707;28;20026;-66
2023/02/20 05:15:15;;;;;;;5.05;3.13;;;21.70;51.50;;;;;;5018971;28;20136;-66
2023/02/20 05:17:40;;;;;;;4.10;2.75;;;21.70;51.50;;;;;;5021746;28;20582;-65
2023/02/20 05:20:07;;;;;;;4.22;2.90;;;21.70;51.50;;;;;;5022136;28;20022;-66
2023/02/20 05:22:33;;;;;;;4.93;3.13;;;21.70;51.50;;;;;;5026931;28;20034;-67
2023/02/20 05:24:59;;;;;;;4.93;2.90;;;21.70;51.50;;;;;;5022474;28;20093;-65
2023/02/20 05:27:26;;;;;;;5.88;3.28;;;21.70;51.50;;;;;;5019388;28;20044;-66
2023/02/20 05:29:55;;;;;;;3.83;2.63;;;21.70;51.60;;;;;;5022474;28;20080;-66
2023/02/20 05:32:22;;;;;;;5.30;3.20;;;21.70;52.10;;;;;;5022284;28;20025;-66
2023/02/20 05:34:47;;;;;;;4.85;2.90;;;21.70;51.60;;;;;;5021178;28;20472;-67
2023/02/20 05:37:16;;;;;;;4.32;2.70;;;21.60;51.50;;;;;;5020663;28;20034;-66
2023/02/20 05:39:42;;;;;;;4.60;2.93;;;21.70;51.60;;;;;;5021900;28;20115;-64
2023/02/20 05:42:08;;;;;;;5.03;3.00;;;21.70;51.60;;;;;;5018840;28;20364;-65
2023/02/20 05:44:34;;;;;;;4.07;2.65;;;21.70;51.60;;;;;;5021713;28;20152;-66
2023/02/20 05:47:01;;;;;;;4.28;2.67;;;21.70;51.60;;;;;;5034710;28;20076;-65
2023/02/20 05:49:26;;;;;;;4.35;2.78;;;21.60;51.50;;;;;;5017976;28;20568;-66
2023/02/20 05:51:55;;;;;;;4.05;2.72;;;21.70;51.60;;;;;;5020898;28;20100;-66
2023/02/20 05:54:21;;;;;;;4.47;2.53;;;21.60;51.50;;;;;;5021925;28;20021;-66
2023/02/20 05:56:47;;;;;;;3.92;2.45;;;21.60;51.60;;;;;;5021883;28;20030;-66
2023/02/20 05:59:16;;;;;;;3.78;2.50;;;21.60;51.60;;;;;;5021273;28;20478;-66
2023/02/20 06:01:41;;;;;;;3.95;2.40;;;21.60;51.50;;;;;;5021563;28;20033;-67
2023/02/20 06:04:07;;;;;;;4.72;2.50;;;21.60;51.60;;;;;;5018338;28;20056;-66
2023/02/20 06:06:38;;;;;;;3.80;2.20;;;21.60;51.60;;;;;;5022482;28;20034;-66
2023/02/20 06:09:06;;;;;;;4.72;2.50;;;21.60;51.50;;;;;;5028620;28;20018;-66
2023/02/20 06:11:33;;;;;;;4.63;2.80;;;21.60;51.60;;;;;;5020626;28;20026;-65
2023/02/20 06:13:58;;;;;;;4.15;2.50;;;21.60;51.60;;;;;;5018183;28;20014;-65
2023/02/20 06:16:26;;;;;;;3.95;2.53;;;21.60;51.60;;;;;;5029209;28;20036;-67
2023/02/20 06:18:53;;;;;;;3.88;2.50;;;21.60;51.50;;;;;;5021801;28;20029;-66
2023/02/20 06:21:22;;;;;;;3.90;2.40;;;21.60;51.60;;;;;;5020974;28;20057;-66
2023/02/20 06:23:49;;;;;;;3.72;2.42;;;21.60;51.60;;;;;;5023780;28;20080;-65
2023/02/20 06:26:16;;;;;;;3.95;2.40;;;21.60;51.60;;;;;;5021027;28;20046;-65
2023/02/20 06:28:42;;;;;;;3.83;2.40;;;21.60;51.60;;;;;;5022599;28;20054;-66
2023/02/20 06:31:08;;;;;;;4.07;2.60;;;21.60;52.10;;;;;;5023215;28;20120;-65
2023/02/20 06:33:34;;;;;;;3.80;2.22;;;21.60;51.60;;;;;;5021436;28;20026;-65
2023/02/20 06:36:00;;;;;;;3.58;2.38;;;21.50;51.50;;;;;;5022272;28;20026;-66
2023/02/20 06:38:26;;;;;;;3.53;2.30;;;21.50;51.50;;;;;;5019060;28;20335;-66
2023/02/20 06:40:51;;;;;;;4.10;2.20;;;21.50;51.50;;;;;;5021413;28;20557;-66
2023/02/20 06:43:18;;;;;;;3.42;2.08;;;21.50;51.60;;;;;;5022392;28;20489;-66
2023/02/20 06:45:44;;;;;;;3.33;2.20;;;21.50;51.60;;;;;;5019411;28;20386;-66
2023/02/20 06:48:10;;;;;;;3.50;2.25;;;21.50;51.50;;;;;;5021072;28;20053;-65
2023/02/20 06:50:36;;;;;;;3.40;2.20;;;21.50;51.60;;;;;;5022186;28;20053;-65
2023/02/20 06:53:02;;;;;;;3.25;2.15;;;21.50;51.60;;;;;;5017353;28;20030;-68
2023/02/20 06:55:27;;;;;;;3.75;2.40;;;21.50;51.60;;;;;;5018194;28;20512;-66
2023/02/20 06:57:53;;;;;;;3.78;2.10;;;21.50;51.60;;;;;;5020751;28;20793;-65
2023/02/20 07:00:19;;;;;;;3.80;2.13;;;21.50;52.10;;;;;;5025365;28;20099;-65
2023/02/20 07:02:44;;;;;;;3.53;1.90;;;21.50;51.60;;;;;;5020958;28;20029;-66
2023/02/20 07:05:11;;;;;;;3.58;2.25;;;21.50;51.70;;;;;;5024643;28;20075;-65
2023/02/20 07:07:37;;;;;;;4.03;2.30;;;21.50;51.60;;;;;;5019526;28;20037;-65
2023/02/20 07:10:05;;;;;;;4.47;2.40;;;21.50;51.60;;;;;;5019873;28;20037;-67
2023/02/20 07:12:36;;;;;;;3.78;2.40;;;21.50;51.70;;;;;;5017921;28;20018;-65
2023/02/20 07:15:03;;;;;;;3.63;2.20;;;21.50;52.20;;;;;;5020947;28;20013;-67
2023/02/20 07:17:28;;;;;;;3.30;2.03;;;21.50;51.70;;;;;;5022069;28;20029;-65
2023/02/20 07:19:54;;;;;;;3.70;2.08;;;21.50;51.70;;;;;;5021250;28;20437;-64
2023/02/20 07:22:20;;;;;;;3.30;1.95;;;21.50;51.70;;;;;;5018233;28;20034;-65
2023/02/20 07:24:52;;;;;;;3.55;1.98;;;21.50;51.70;;;;;;5017673;28;20057;-66
2023/02/20 07:27:18;;;;;;;3.35;2.00;;;21.40;51.60;;;;;;5017558;28;20041;-65
2023/02/20 07:29:45;;;;;;;3.00;2.10;;;21.50;51.70;;;;;;5019005;28;20484;-65
2023/02/20 07:32:11;;;;;;;3.45;2.00;;;21.40;51.60;;;;;;5020149;28;20083;-66
2023/02/20 07:34:37;;;;;;;3.25;1.98;;;21.40;51.60;;;;;;5020043;28;20029;-65
2023/02/20 07:37:03;;;;;;;3.38;1.95;;;21.40;51.60;;;;;;5016436;28;20125;-65
2023/02/20 07:39:29;;;;;;;3.58;1.75;;;21.40;51.60;;;;;;5020432;28;20033;-66
2023/02/20 07:41:54;;;;;;;3.30;2.20;;;21.40;51.60;;;;;;5019813;28;20045;-65
2023/02/20 07:44:20;;;;;;;3.83;2.17;;;21.40;51.60;;;;;;5020380;28;20040;-65
2023/02/20 07:46:46;;;;;;;3.78;2.03;;;21.40;51.60;;;;;;5021628;28;20182;-66
2023/02/20 07:49:11;;;;;;;3.22;2.05;;;21.40;51.60;;;;;;5020191;28;20033;-66
2023/02/20 07:51:37;;;;;;;2.78;1.83;;;21.40;51.60;;;;;;5020872;28;20528;-66
2023/02/20 07:54:02;;;;;;;3.22;2.03;;;21.40;51.60;;;;;;5020793;28;20022;-66
2023/02/20 07:56:29;;;;;;;3.28;2.08;;;21.40;51.60;;;;;;5017708;28;20036;-66
2023/02/20 07:58:54;;;;;;;3.58;1.92;;;21.40;51.60;;;;;;5020819;28;20084;-65
2023/02/20 08:01:20;;;;;;;3.50;1.90;;;21.40;51.60;;;;;;5019867;28;20026;-65
2023/02/20 08:03:46;;;;;;;3.30;2.20;;;21.40;51.60;;;;;;5015723;28;20076;-66
2023/02/20 08:06:15;;;;;;;3.40;1.95;;;21.40;51.60;;;;;;5026325;28;20037;-66
2023/02/20 08:08:40;;;;;;;3.00;1.80;;;21.40;51.60;;;;;;5019486;28;20033;-67
2023/02/20 08:11:06;;;;;;;3.22;1.90;;;21.40;51.60;;;;;;5018201;28;20440;-65
2023/02/20 08:13:32;;;;;;;3.03;1.77;;;21.40;51.60;;;;;;5020310;28;20092;-65
2023/02/20 08:15:57;;;;;;;2.92;1.70;;;21.40;51.60;;;;;;5018654;28;20099;-65
2023/02/20 08:18:23;;;;;;;3.28;2.08;;;21.40;51.60;;;;;;5017852;28;20033;-66
2023/02/20 08:20:50;;;;;;;3.05;2.00;;;21.40;51.60;;;;;;5019744;28;20034;-65
2023/02/20 08:23:21;;;;;;;2.90;1.70;;;21.40;51.60;;;;;;5017561;28;20102;-64
2023/02/20 08:25:47;;;;;;;3.22;1.92;;;21.40;51.60;;;;;;5018059;28;20037;-65
2023/02/20 08:28:13;;;;;;;3.40;1.90;;;21.40;51.60;;;;;;5018603;28;20021;-65
2023/02/20 08:30:38;;;;;;;3.17;1.90;;;21.40;51.50;;;;;;5020613;28;20094;-66
2023/02/20 08:33:05;;;;;;;3.13;1.80;;;21.40;51.50;;;;;;5022739;28;20398;-64
2023/02/20 08:35:34;;;;;;;3.40;1.88;;;21.40;52.00;;;;;;5023979;28;20018;-65
2023/02/20 08:38:05;;;;;;;3.42;2.08;;;21.40;51.50;;;;;;5022095;28;20045;-66
2023/02/20 08:40:32;;;;;;;3.10;1.80;;;21.40;51.50;;;;;;5021165;28;20116;-65
2023/02/20 08:42:58;;;;;;;3.30;1.80;;;21.40;52.00;;;;;;5021768;28;20042;-65
2023/02/20 08:45:24;;;;;;;2.53;1.70;;;21.40;51.40;;;;;;5023374;28;20465;-65
2023/02/20 08:47:50;;;;;;;3.25;2.00;;;21.40;51.40;;;;;;5023715;28;20076;-64
2023/02/20 08:50:19;;;;;;;2.90;1.70;;;21.40;51.40;;;;;;5019898;28;20026;-65
2023/02/20 08:52:45;;;;;;;2.60;1.73;;;21.30;51.30;;;;;;5017733;28;20033;-64
2023/02/20 08:55:12;;;;;;;2.20;1.50;;;21.30;51.20;;;;;;5021594;28;20034;-65
2023/02/20 08:57:37;;;;;;;2.53;1.50;;;21.40;51.30;;;;;;5022326;28;20488;-65
2023/02/20 09:00:06;;;;;;;3.75;1.80;;;21.30;51.20;;;;;;5021043;28;20037;-65
2023/02/20 09:02:32;;;;;;;2.70;1.50;;;21.30;51.10;;;;;;5017117;28;20568;-65
2023/02/20 09:04:57;;;;;;;2.33;1.50;;;21.30;51.10;;;;;;5021823;28;20037;-65
2023/02/20 09:07:24;;;;;;;2.20;1.20;;;21.30;51.10;;;;;;5018869;28;20455;-65
2023/02/20 09:09:49;;;;;;;3.13;1.70;;;21.30;51.00;;;;;;5022364;28;20332;-66
2023/02/20 09:12:15;;;;;;;2.42;1.52;;;21.30;51.00;;;;;;5020752;28;20029;-67
2023/02/20 09:14:41;;;;;;;2.45;1.40;;;21.30;51.00;;;;;;5025619;28;20037;-66
2023/02/20 09:17:07;;;;;;;2.60;1.60;;;21.30;51.00;;;;;;5024481;28;20381;-65
2023/02/20 09:19:33;;;;;;;2.13;1.30;;;21.30;51.00;;;;;;5021326;28;20061;-65
2023/02/20 09:21:59;;;;;;;3.13;1.42;;;21.30;51.00;;;;;;5022017;28;20127;-66
2023/02/20 09:24:30;;;;;;;2.28;1.40;;;21.30;51.00;;;;;;5020262;28;20039;-66
2023/02/20 09:26:56;;;;;;;2.83;1.50;;;21.30;51.50;;;;;;5024161;28;20030;-65
2023/02/20 09:29:22;;;;;;;2.53;1.40;;;21.30;51.00;;;;;;5029771;28;20039;-66
2023/02/20 09:31:47;;;;;;;2.70;1.42;;;21.30;51.00;;;;;;5025872;28;20056;-65
2023/02/20 09:34:13;;;;;;;2.35;1.40;;;21.30;51.00;;;;;;5029123;28;20350;-65
2023/02/20 09:36:38;;;;;;;2.47;1.25;;;21.30;51.00;;;;;;5025267;28;20034;-65
2023/02/20 09:39:04;;;;;;;2.05;1.27;;;21.30;51.00;;;;;;5019921;28;20030;-67
2023/02/20 09:42:07;;;;;;;2.30;1.33;;;21.30;51.00;;;;;;5025041;28;20500;-66
2023/02/20 09:44:42;;;;;;;2.72;1.50;;;21.30;51.00;;;;;;5019716;28;20411;-65
2023/02/20 09:47:24;;;;;;;3.30;1.55;;;21.30;51.00;;;;;;5021413;28;20030;-65
2023/02/20 09:49:52;;;;;;;2.35;1.30;;;21.30;51.10;;;;;;5019723;28;20026;-65
2023/02/20 09:52:18;;;;;;;2.10;1.30;;;21.30;51.10;;;;;;5021559;28;20052;-65
2023/02/20 09:54:51;;;;;;;2.17;1.25;;;21.30;51.10;;;;;;5020759;28;20030;-64
2023/02/20 09:57:23;;;;;;;1.88;1.10;;;21.30;51.10;;;;;;5022552;28;20494;-65
2023/02/20 09:59:53;;;;;;;2.13;1.20;;;21.30;51.10;;;;;;5020341;28;20444;-65
2023/02/20 10:02:30;;;;;;;2.25;1.40;;;21.30;51.20;;;;;;5021603;28;20079;-65
2023/02/20 10:05:03;;;;;;;2.22;1.23;;;21.30;51.20;;;;;;5021056;28;20056;-65
2023/02/20 10:07:35;;;;;;;2.30;1.33;;;21.30;51.20;;;;;;5020488;28;20398;-64
2023/02/20 10:10:29;;;;;;;2.20;1.40;;;21.30;51.20;;;;;;5022735;28;20030;-65
2023/02/20 10:13:28;;;;;;;1.95;1.20;;;21.30;51.20;;;;;;5023044;28;20076;-66
2023/02/20 10:16:28;;;;;;;2.30;1.30;;;21.30;51.20;;;;;;5020517;28;20156;-65
2023/02/20 10:19:23;;;;;;;2.28;1.00;;;21.30;51.20;;;;;;5023386;28;20366;-65
2023/02/20 10:22:17;;;;;;;1.98;1.10;;;21.30;51.20;;;;;;5020746;28;20034;-66
2023/02/20 10:24:52;;;;;;;2.30;1.30;;;21.30;51.20;;;;;;5022021;28;20064;-65
2023/02/20 10:27:33;;;;;;;2.25;1.23;;;21.30;51.20;;;;;;5025240;28;20038;-65
2023/02/20 10:30:01;;;;;;;2.35;1.30;;;21.30;51.20;;;;;;5023525;28;20021;-65
2023/02/20 10:33:01;;;;;;;2.15;1.02;;;21.30;51.20;;;;;;5027946;28;20026;-64
2023/02/20 10:35:40;;;;;;;1.73;1.10;;;21.30;51.30;;;;;;5019131;28;20095;-64
2023/02/20 10:38:08;;;;;;;;;;;21.30;51.30;;;;;;5021886;28;20037;-64
2023/02/20 10:40:40;;;;;;;2.85;1.23;;;21.30;51.30;;;;;;5018494;28;19960;-65
2023/02/20 10:43:16;;;;;;;1.77;1.17;;;21.30;51.30;;;;;;5022511;28;20490;-64
2023/02/20 10:46:10;;;;;;;3.10;1.20;;;21.30;51.30;;;;;;5020984;28;20546;-66
2023/02/20 10:48:38;;;;;;;1.98;1.20;;;21.30;51.30;;;;;;5018132;28;20068;-65
2023/02/20 10:51:10;;;;;;;2.13;1.17;;;21.30;51.40;;;;;;5022336;28;20459;-65
2023/02/20 10:53:47;;;;;;;2.45;1.25;;;21.30;51.30;;;;;;5020999;28;20100;-64
2023/02/20 10:56:16;;;;;;;4.22;1.27;;;21.30;51.40;;;;;;5022809;28;20052;-65
2023/02/20 10:58:52;;;;;;;2.22;1.05;;;21.30;51.40;;;;;;5018897;28;20044;-65
2023/02/20 11:01:20;;;;;;;1.77;1.13;;;21.30;51.40;;;;;;5019871;28;20033;-65
2023/02/20 11:04:02;;;;;;;2.20;1.20;;;21.30;51.40;;;;;;5016430;28;20421;-64
2023/02/20 11:06:53;;;;;;;1.63;1.10;;;21.30;51.40;;;;;;5022446;28;20034;-64
2023/02/20 11:09:19;;;;;;;2.35;1.10;;;21.30;51.30;;;;;;5021572;28;20110;-64
2023/02/20 11:11:46;;;;;;;2.13;1.00;;;21.30;51.40;;;;;;5022713;28;20052;-64
2023/02/20 11:14:13;;;;;;;2.20;1.10;;;21.30;51.40;;;;;;5018231;28;20545;-65
2023/02/20 11:16:48;;;;;;;1.67;1.10;;;21.20;51.90;;;;;;5019540;28;20526;-65
2023/02/20 11:19:22;;;;;;;1.73;1.10;;;21.30;51.40;;;;;;5017436;28;20451;-64
2023/02/20 11:21:49;;;;;;;2.55;1.20;;;21.30;51.40;;;;;;5018948;28;20042;-64
2023/02/20 11:24:29;;;;;;;2.67;1.30;;;21.30;51.40;;;;;;5020290;28;20045;-67
2023/02/20 11:27:05;;;;;;;2.30;1.52;;;21.30;51.50;;;;;;5016845;28;20600;-65
2023/02/20 11:29:36;;;;;;;2.33;1.40;;;21.30;52.00;;;;;;5018329;28;20021;-65
2023/02/20 11:32:21;;;;;;;3.00;1.45;;;21.30;52.00;;;;;;5026952;28;20429;-65
2023/02/20 11:34:47;;;;;;;4.82;2.03;;;21.30;51.60;;;;;;5021812;28;20531;-65
2023/02/20 11:37:13;;;;;;;3.65;2.25;;;21.30;51.60;;;;;;5018411;28;20021;-65
2023/02/20 11:39:46;;;;;;;3.50;2.10;;;21.20;51.50;;;;;;5015751;28;20479;-67
2023/02/20 11:42:17;;;;;;;3.78;2.35;;;21.30;51.60;;;;;;5017258;28;20030;-66
2023/02/20 11:44:43;;;;;;;4.50;2.30;;;21.30;51.60;;;;;;5017415;28;20037;-65
2023/02/20 11:47:23;;;;;;;4.22;2.58;;;21.30;51.60;;;;;;5019040;28;20044;-67
2023/02/20 11:50:07;;;;;;;4.95;3.00;;;21.30;51.60;;;;;;5019497;28;20026;-66
2023/02/20 11:52:33;;;;;;;5.38;3.20;;;21.20;51.70;;;;;;5015494;28;20063;-66
2023/02/20 11:55:21;;;;;;;4.72;3.08;;;21.20;51.70;;;;;;5021403;28;20148;-66
2023/02/20 11:57:47;;;;;;;4.63;3.40;;;21.20;51.70;;;;;;5018114;28;20037;-66
2023/02/20 12:00:18;;;;;;;5.18;3.40;;;21.20;51.70;;;;;;5019450;28;20033;-65
2023/02/20 12:03:07;;;;;;;5.05;3.47;;;21.20;51.70;;;;;;5014890;28;20067;-66
2023/02/20 12:05:45;;;;;;;4.78;3.40;;;21.20;51.70;;;;;;5012671;28;20100;-66
2023/02/20 12:08:37;;;;;;;5.80;3.90;;;21.20;51.70;;;;;;5017258;28;20052;-67
2023/02/20 12:11:24;;;;;;;5.57;3.78;;;21.20;51.70;;;;;;5012583;28;20087;-66
2023/02/20 12:13:52;;;;;;;5.25;3.85;;;21.30;51.70;;;;;;5018966;28;20018;-66
2023/02/20 12:16:30;;;;;;;6.20;4.55;;;21.20;51.70;;;;;;5017424;28;20398;-66
2023/02/20 12:19:04;;;;;;;5.93;4.43;;;21.20;51.70;;;;;;5016515;28;20033;-66
2023/02/20 12:21:49;;;;;;;6.93;4.70;;;21.20;51.70;;;;;;5017409;28;20461;-66
2023/02/20 12:24:42;;;;;;;6.05;4.60;;;21.20;51.60;;;;;;5018924;28;20116;-67
2023/02/20 12:27:21;;;;;;;5.03;4.45;;;21.20;51.60;;;;;;5019702;28;20688;-66
2023/02/20 12:30:06;;;;;;;6.70;4.88;;;21.20;51.60;;;;;;5017229;28;20466;-65
2023/02/20 12:33:00;;;;;;;6.90;4.90;;;21.20;51.60;;;;;;5017322;28;20048;-66
2023/02/20 12:35:34;;;;;;;8.27;5.45;;;21.20;51.60;;;;;;5020141;28;20531;-66
2023/02/20 12:38:14;;;;;;;6.03;4.80;;;21.20;51.60;;;;;;5019154;28;20030;-67
2023/02/20 12:41:15;;;;;;;6.72;4.80;;;21.20;51.60;;;;;;5020696;28;20542;-66
2023/02/20 12:44:09;;;;;;;6.00;4.65;;;21.20;51.70;;;;;;5019750;28;20021;-66
2023/02/20 12:47:06;;;;;;;6.45;4.75;;;21.20;51.70;;;;;;5019015;28;20363;-66
2023/02/20 12:49:37;;;;;;;7.25;5.63;;;21.20;52.10;;;;;;5005551;28;20041;-66
2023/02/20 12:52:18;;;;;;;6.65;5.43;;;21.20;52.50;;;;;;5018065;28;20060;-67
2023/02/20 12:55:07;;;;;;;6.88;4.90;;;21.20;52.20;;;;;;5016980;28;20098;-66
2023/02/20 12:57:47;;;;;;;6.82;5.45;;;21.20;52.00;;;;;;5017753;28;20030;-65
2023/02/20 13:00:39;;;;;;;7.38;5.30;;;21.20;52.10;;;;;;5019403;28;20473;-66
2023/02/20 13:03:11;;;;;;;7.43;5.22;;;21.20;52.00;;;;;;5019300;28;20108;-65
2023/02/20 13:05:42;;;;;;;7.25;5.10;;;21.20;52.00;;;;;;5019481;28;20025;-65
2023/02/20 13:08:33;;;;;;;7.20;4.68;;;21.20;52.00;;;;;;5019394;28;20489;-67
2023/02/20 13:11:03;;;;;;;6.55;4.85;;;21.30;52.00;;;;;;5017464;28;20120;-65
2023/02/20 13:13:53;;;;;;;6.82;4.93;;;21.20;51.90;;;;;;5018641;28;20066;-68
2023/02/20 13:16:35;;;;;;;6.50;5.18;;;21.30;52.00;;;;;;5020327;28;20026;-66
2023/02/20 13:19:25;;;;;;;6.40;5.18;;;21.30;52.00;;;;;;5023560;28;20038;-66
2023/02/20 13:21:52;;;;;;;6.40;4.55;;;21.30;52.00;;;;;;5013661;28;20042;-66